Time;durP1;ratioP1;P1;durP2;ratioP2;P2;SDS_P1;SDS_P2;PMS_P1;PMS_P2;Temp;Humidity;BMP_temperature;BMP_pressure;BME280_temperature;BME280_humidity;BME280_pressure;Samples;Min_cycle;Max_cycle;Signal;HPM_P1;HPM_P2
2022/01/22 00:01:43;;;;;;;15.90;2.33;;;6.20;99.90;;;;;;5099628;28;20058;-66
2022/01/22 00:04:09;;;;;;;18.25;2.97;;;6.20;99.90;;;;;;5117573;28;20040;-67
2022/01/22 00:06:35;;;;;;;17.30;2.88;;;6.20;99.90;;;;;;5123489;27;20042;-66
2022/01/22 00:09:01;;;;;;;22.35;3.30;;;6.20;99.90;;;;;;5138341;27;20039;-65
2022/01/22 00:11:34;;;;;;;20.23;2.75;;;6.20;99.90;;;;;;5138203;27;20097;-66
2022/01/22 00:16:45;;;;;;;19.05;2.83;;;6.30;99.90;;;;;;5136920;27;20794;-66
2022/01/22 00:19:10;;;;;;;13.68;2.30;;;6.30;99.90;;;;;;5137911;27;20039;-66
2022/01/22 00:21:37;;;;;;;16.70;2.92;;;6.30;99.90;;;;;;5103053;27;20432;-65
2022/01/22 00:24:04;;;;;;;16.20;2.67;;;6.30;99.90;;;;;;5137853;27;20035;-67
2022/01/22 00:26:29;;;;;;;19.98;2.72;;;6.30;99.90;;;;;;5111346;28;20346;-66
2022/01/22 00:28:55;;;;;;;18.30;3.13;;;6.30;99.90;;;;;;5097077;28;20051;-67
2022/01/22 00:31:21;;;;;;;16.80;2.92;;;6.30;99.90;;;;;;5097000;28;20445;-66
2022/01/22 00:33:46;;;;;;;19.10;2.55;;;6.30;99.90;;;;;;5096738;28;20461;-66
2022/01/22 00:36:12;;;;;;;17.40;3.20;;;6.30;99.90;;;;;;5100253;27;20049;-66
2022/01/22 00:38:38;;;;;;;15.98;3.28;;;6.40;99.90;;;;;;5137578;27;20040;-66
2022/01/22 00:41:03;;;;;;;24.85;3.78;;;6.40;99.90;;;;;;5137881;27;20041;-66
2022/01/22 00:43:29;;;;;;;17.33;3.05;;;6.40;99.90;;;;;;5137567;27;20114;-67
2022/01/22 00:45:55;;;;;;;15.50;3.03;;;6.40;99.90;;;;;;5137142;27;20071;-65
2022/01/22 00:48:20;;;;;;;15.10;2.78;;;6.30;99.90;;;;;;5116515;27;20410;-67
2022/01/22 00:50:50;;;;;;;21.88;2.63;;;6.30;99.90;;;;;;5082008;28;20082;-66
2022/01/22 00:53:16;;;;;;;19.67;2.80;;;6.30;99.90;;;;;;5116394;28;20071;-66
2022/01/22 00:55:42;;;;;;;18.05;2.38;;;6.30;99.90;;;;;;5116844;28;20476;-67
2022/01/22 00:58:07;;;;;;;16.83;2.97;;;6.30;99.90;;;;;;5095314;28;20039;-67
2022/01/22 01:00:34;;;;;;;15.32;2.28;;;6.40;99.90;;;;;;5096245;28;20027;-67
2022/01/22 01:03:00;;;;;;;15.32;2.58;;;6.30;99.90;;;;;;5096369;28;20040;-67
2022/01/22 01:05:26;;;;;;;10.30;2.58;;;6.30;99.90;;;;;;5095905;28;20115;-66
2022/01/22 01:07:51;;;;;;;17.13;2.90;;;6.40;99.90;;;;;;5127766;27;20075;-66
2022/01/22 01:10:21;;;;;;;24.85;3.20;;;6.30;99.90;;;;;;5119018;27;20043;-66
2022/01/22 01:12:49;;;;;;;14.60;2.92;;;6.40;99.90;;;;;;5136667;27;20050;-66
2022/01/22 01:15:34;;;;;;;21.10;3.22;;;6.30;99.90;;;;;;5136758;27;20092;-66
2022/01/22 01:32:10;;;;;;;12.02;2.70;;;6.30;99.90;;;;;;5112737;27;20047;-65
2022/01/22 01:34:39;;;;;;;18.20;2.63;;;6.40;99.90;;;;;;5116106;28;20039;-66
2022/01/22 01:37:04;;;;;;;13.57;2.47;;;6.40;99.90;;;;;;5104898;27;20352;-66
2022/01/22 01:39:33;;;;;;;22.95;3.50;;;6.40;99.90;;;;;;5136643;27;20408;-67
2022/01/22 01:44:25;;;;;;;17.45;2.70;;;6.40;99.90;;;;;;5136428;27;20105;-65
2022/01/22 01:47:00;;;;;;;20.33;2.78;;;6.40;99.90;;;;;;5135524;27;20035;-64
2022/01/22 01:49:27;;;;;;;17.00;2.63;;;6.40;99.90;;;;;;5136410;27;20078;-64
2022/01/22 01:51:55;;;;;;;15.07;2.78;;;6.40;99.90;;;;;;5136490;27;20043;-68
2022/01/22 01:54:31;;;;;;;16.13;2.50;;;6.40;99.90;;;;;;5136562;27;20039;-66
2022/01/22 01:59:45;;;;;;;18.42;2.88;;;6.40;99.90;;;;;;5117515;27;20043;-68
2022/01/22 02:02:11;;;;;;;14.35;2.22;;;6.50;99.90;;;;;;5117612;27;20460;-65
2022/01/22 02:04:37;;;;;;;14.55;2.53;;;6.40;99.90;;;;;;5116822;27;20043;-66
2022/01/22 02:07:05;;;;;;;16.63;2.55;;;6.40;99.90;;;;;;5135496;27;20027;-66
2022/01/22 02:09:33;;;;;;;16.30;2.80;;;6.40;99.90;;;;;;5135943;27;20037;-66
2022/01/22 02:25:46;;;;;;;18.65;2.30;;;6.30;99.90;;;;;;5135695;27;20043;-65
2022/01/22 02:28:13;;;;;;;15.85;3.05;;;6.30;99.90;;;;;;5109685;27;20047;-67
2022/01/22 02:30:43;;;;;;;17.55;2.80;;;6.30;99.90;;;;;;5135326;27;20043;-65
2022/01/22 02:33:29;;;;;;;14.32;2.63;;;6.30;99.90;;;;;;5135700;27;20038;-65
2022/01/22 02:36:07;;;;;;;17.60;2.58;;;6.20;99.90;;;;;;5135481;27;20083;-65
2022/01/22 02:38:44;;;;;;;15.35;2.60;;;6.10;99.90;;;;;;5107441;28;20368;-66
2022/01/22 02:41:16;;;;;;;12.98;2.25;;;6.10;99.90;;;;;;5114884;28;20035;-66
2022/01/22 02:43:41;;;;;;;14.88;2.35;;;6.10;99.90;;;;;;5114814;28;20087;-66
2022/01/22 02:46:07;;;;;;;18.33;2.22;;;6.10;99.90;;;;;;5115233;27;20139;-66
2022/01/22 02:48:33;;;;;;;14.48;2.03;;;6.20;99.90;;;;;;5113510;28;20040;-65
2022/01/22 02:50:58;;;;;;;10.68;2.30;;;6.10;99.90;;;;;;5131758;27;20075;-66
2022/01/22 02:53:24;;;;;;;8.88;1.83;;;6.10;99.90;;;;;;5135450;27;20131;-67
2022/01/22 02:55:50;;;;;;;12.77;2.40;;;6.10;99.90;;;;;;5135472;27;20050;-66
2022/01/22 02:58:16;;;;;;;10.02;2.00;;;6.10;99.90;;;;;;5134078;27;20122;-67
2022/01/22 03:00:42;;;;;;;13.38;2.22;;;6.10;99.90;;;;;;5134767;27;20039;-67
2022/01/22 03:03:08;;;;;;;11.20;1.83;;;6.10;99.90;;;;;;5134946;27;20116;-65
2022/01/22 03:05:34;;;;;;;8.90;1.90;;;6.00;99.90;;;;;;5134896;27;20160;-65
2022/01/22 03:08:05;;;;;;;12.07;2.60;;;6.00;99.90;;;;;;5108355;27;20104;-65
2022/01/22 03:10:31;;;;;;;13.23;1.92;;;6.00;99.90;;;;;;5117719;27;20368;-65
2022/01/22 03:27:20;;;;;;;16.65;2.00;;;6.10;99.90;;;;;;5134817;28;20043;-66
2022/01/22 03:28:55;;;;;;;10.70;2.40;;;6.00;99.90;;;;;;5134348;28;20057;-66
2022/01/22 03:31:22;;;;;;;11.85;2.50;;;6.10;99.90;;;;;;5134798;28;20039;-65
2022/01/22 03:33:48;;;;;;;9.45;2.10;;;6.10;99.90;;;;;;5134425;28;20078;-65
2022/01/22 03:36:14;;;;;;;10.27;2.03;;;6.10;99.90;;;;;;5133244;28;20085;-65
2022/01/22 03:38:40;;;;;;;17.48;1.92;;;6.10;99.90;;;;;;5134366;28;20088;-66
2022/01/22 03:41:06;;;;;;;10.85;2.10;;;6.10;99.90;;;;;;5116419;28;20043;-65
2022/01/22 03:43:31;;;;;;;10.25;2.10;;;6.00;99.90;;;;;;5134379;28;20452;-67
2022/01/22 03:45:57;;;;;;;13.57;1.83;;;6.00;99.90;;;;;;5116298;28;20119;-65
2022/01/22 03:48:23;;;;;;;5.57;2.00;;;6.00;99.90;;;;;;5115194;28;20050;-67
2022/01/22 03:50:49;;;;;;;9.68;1.95;;;6.00;99.90;;;;;;5134188;28;20167;-65
2022/01/22 03:53:16;;;;;;;9.88;2.00;;;6.00;99.90;;;;;;5116342;28;20039;-65
2022/01/22 03:56:00;;;;;;;10.68;2.15;;;6.00;99.90;;;;;;5116157;28;20467;-64
2022/01/22 03:58:25;;;;;;;8.55;2.30;;;6.00;99.90;;;;;;5133484;28;20329;-66
2022/01/22 04:01:03;;;;;;;12.50;2.13;;;6.00;99.90;;;;;;5134652;28;20095;-65
2022/01/22 04:03:33;;;;;;;7.18;2.05;;;6.00;99.90;;;;;;5134221;28;20402;-65
2022/01/22 04:06:29;;;;;;;9.73;2.05;;;6.10;99.90;;;;;;5134370;28;20573;-65
2022/01/22 04:08:47;;;;;;;8.60;2.20;;;6.00;99.90;;;;;;5134286;28;20112;-65
2022/01/22 04:11:15;;;;;;;13.45;2.47;;;6.00;99.90;;;;;;5116416;28;20039;-68
2022/01/22 04:13:42;;;;;;;13.05;2.35;;;6.00;99.90;;;;;;5134589;28;20049;-65
2022/01/22 04:16:11;;;;;;;13.68;2.60;;;6.00;99.90;;;;;;5115626;28;20432;-65
2022/01/22 04:26:56;;;;;;;8.93;2.00;;;6.00;99.90;;;;;;5098587;28;20040;-65
2022/01/22 04:29:23;;;;;;;12.85;1.70;;;6.00;99.90;;;;;;5117382;28;20453;-67
2022/01/22 04:31:49;;;;;;;8.00;1.88;;;6.00;99.90;;;;;;5117233;28;20082;-66
2022/01/22 04:34:15;;;;;;;9.95;1.67;;;6.00;99.90;;;;;;5117446;28;20347;-66
2022/01/22 04:36:40;;;;;;;8.45;1.50;;;6.00;99.90;;;;;;5112395;28;20059;-65
2022/01/22 04:39:06;;;;;;;6.75;1.40;;;6.00;99.90;;;;;;5096907;28;20377;-66
2022/01/22 04:41:32;;;;;;;7.35;2.03;;;6.00;99.90;;;;;;5096806;28;20032;-66
2022/01/22 04:44:01;;;;;;;7.18;1.50;;;6.00;99.90;;;;;;5078748;28;20044;-65
2022/01/22 04:46:50;;;;;;;8.98;1.95;;;6.00;99.90;;;;;;5078248;28;20044;-64
2022/01/22 04:57:17;;;;;;;7.82;1.63;;;6.00;99.90;;;;;;5116042;28;20051;-66
2022/01/22 04:59:43;;;;;;;6.93;2.08;;;6.00;99.90;;;;;;5116867;28;20059;-64
2022/01/22 05:02:09;;;;;;;5.80;1.60;;;6.00;99.90;;;;;;5116652;28;20096;-66
2022/01/22 05:04:34;;;;;;;6.60;1.70;;;6.00;99.90;;;;;;5116831;28;20031;-68
2022/01/22 05:07:00;;;;;;;8.60;1.60;;;6.00;99.90;;;;;;5115777;28;20047;-64
2022/01/22 05:09:26;;;;;;;8.05;1.85;;;6.00;99.90;;;;;;5116690;28;20122;-65
2022/01/22 05:11:51;;;;;;;5.38;1.48;;;6.00;99.90;;;;;;5116667;28;20059;-65
2022/01/22 05:14:17;;;;;;;8.38;1.40;;;6.00;99.90;;;;;;5098452;28;20047;-65
2022/01/22 05:16:43;;;;;;;7.35;1.60;;;6.00;99.90;;;;;;5115123;28;20428;-65
2022/01/22 05:19:21;;;;;;;6.40;1.80;;;6.00;99.90;;;;;;5116599;28;20051;-65
2022/01/22 05:21:50;;;;;;;6.28;1.50;;;5.90;99.90;;;;;;5116494;28;20168;-64
2022/01/22 05:24:20;;;;;;;11.07;1.48;;;6.00;99.90;;;;;;5116460;28;20086;-66
2022/01/22 05:37:31;;;;;;;8.77;1.52;;;6.00;99.90;;;;;;5115455;28;20040;-65
2022/01/22 05:39:57;;;;;;;6.63;1.40;;;6.00;99.90;;;;;;5115679;28;20043;-65
2022/01/22 05:42:23;;;;;;;6.53;1.80;;;6.00;99.90;;;;;;5116152;28;20028;-67
2022/01/22 05:44:48;;;;;;;7.22;1.83;;;6.00;99.90;;;;;;5115772;28;20035;-66
2022/01/22 05:47:20;;;;;;;7.75;2.10;;;6.00;99.90;;;;;;5096818;28;20046;-66
2022/01/22 05:49:46;;;;;;;8.93;2.20;;;6.00;99.90;;;;;;5098950;28;20111;-66
2022/01/22 05:52:14;;;;;;;11.75;2.42;;;6.00;99.90;;;;;;5115254;28;20114;-66
2022/01/22 06:00:08;;;;;;;8.10;2.05;;;6.00;99.90;;;;;;5115317;28;20044;-65
2022/01/22 06:02:34;;;;;;;9.07;1.92;;;6.00;99.90;;;;;;5115345;28;20100;-65
2022/01/22 06:05:00;;;;;;;3.95;1.63;;;6.00;99.90;;;;;;5115595;28;20452;-65
2022/01/22 06:07:25;;;;;;;6.57;1.60;;;6.00;99.90;;;;;;5114707;28;20063;-65
2022/01/22 06:12:43;;;;;;;10.32;1.90;;;6.00;99.90;;;;;;5115361;28;20073;-65
2022/01/22 06:15:09;;;;;;;5.50;1.70;;;6.00;99.90;;;;;;5115084;28;20043;-64
2022/01/22 06:17:35;;;;;;;7.50;1.92;;;6.00;99.90;;;;;;5114126;27;20139;-65
2022/01/22 06:20:01;;;;;;;6.40;2.03;;;6.00;99.90;;;;;;5115105;28;20115;-65
2022/01/22 06:22:26;;;;;;;6.28;1.90;;;6.00;99.90;;;;;;5115027;28;20119;-64
2022/01/22 06:24:52;;;;;;;7.50;1.92;;;6.00;99.90;;;;;;5115136;28;20043;-65
2022/01/22 06:27:18;;;;;;;9.48;2.00;;;6.00;99.90;;;;;;5122642;27;20054;-64
2022/01/22 06:29:43;;;;;;;6.95;2.10;;;6.00;99.90;;;;;;5135508;27;20043;-65
2022/01/22 06:32:09;;;;;;;8.32;2.13;;;6.00;99.90;;;;;;5135381;27;20093;-65
2022/01/22 06:34:34;;;;;;;8.15;2.20;;;6.00;99.90;;;;;;5135170;27;20039;-64
2022/01/22 06:37:00;;;;;;;7.15;2.22;;;6.00;99.90;;;;;;5128755;27;20054;-65
2022/01/22 06:39:26;;;;;;;11.07;2.67;;;6.00;99.90;;;;;;5114815;28;20069;-65
2022/01/22 06:41:53;;;;;;;10.10;2.40;;;6.00;99.90;;;;;;5096482;28;20397;-67
2022/01/22 06:44:25;;;;;;;8.25;2.40;;;6.00;99.90;;;;;;5114619;28;20050;-65
2022/01/22 06:46:54;;;;;;;9.48;2.53;;;6.10;99.90;;;;;;5079661;28;20067;-66
2022/01/22 06:49:20;;;;;;;9.93;2.95;;;6.00;99.90;;;;;;5096221;28;20044;-65
2022/01/22 06:51:46;;;;;;;9.20;2.55;;;6.00;99.90;;;;;;5114033;28;20062;-66
2022/01/22 06:54:14;;;;;;;8.45;2.40;;;6.00;99.90;;;;;;5114055;28;20124;-65
2022/01/22 06:56:39;;;;;;;14.73;2.88;;;6.00;99.90;;;;;;5098286;27;20055;-64
2022/01/22 06:59:10;;;;;;;8.88;2.65;;;6.00;99.90;;;;;;5134879;27;20031;-64
2022/01/22 07:01:35;;;;;;;11.95;3.10;;;6.00;99.90;;;;;;5134899;27;20061;-65
2022/01/22 07:04:02;;;;;;;11.43;2.53;;;6.00;99.90;;;;;;5134492;27;20626;-64
2022/01/22 07:06:28;;;;;;;11.70;2.83;;;6.00;99.90;;;;;;5114992;28;20043;-66
2022/01/22 07:08:53;;;;;;;10.93;2.80;;;6.00;99.90;;;;;;5114373;28;20513;-65
2022/01/22 07:11:19;;;;;;;7.45;2.22;;;6.00;99.90;;;;;;5114305;28;20038;-64
2022/01/22 07:13:45;;;;;;;13.50;2.42;;;6.00;99.90;;;;;;5114053;28;20504;-65
2022/01/22 07:16:11;;;;;;;6.88;2.05;;;6.00;99.90;;;;;;5113690;28;20042;-65
2022/01/22 07:18:37;;;;;;;8.50;1.92;;;6.00;99.90;;;;;;5132556;27;20059;-66
2022/01/22 07:21:13;;;;;;;6.25;1.83;;;6.00;99.90;;;;;;5134916;28;20035;-63
2022/01/22 07:24:06;;;;;;;5.60;1.88;;;5.90;99.90;;;;;;5134395;28;20114;-65
2022/01/22 07:26:24;;;;;;;7.30;2.10;;;5.90;99.90;;;;;;5115549;28;20074;-65
2022/01/22 07:28:50;;;;;;;8.48;2.08;;;5.90;99.90;;;;;;5114202;28;20424;-64
2022/01/22 07:31:20;;;;;;;5.63;1.75;;;5.90;99.90;;;;;;5113860;28;20468;-64
2022/01/22 07:33:47;;;;;;;6.75;2.20;;;6.00;99.90;;;;;;5114130;28;20071;-63
2022/01/22 07:36:12;;;;;;;4.95;2.00;;;6.00;99.90;;;;;;5095319;28;20419;-65
2022/01/22 07:38:39;;;;;;;6.45;1.90;;;6.00;99.90;;;;;;5096700;28;20047;-65
2022/01/22 07:41:08;;;;;;;9.32;1.95;;;6.00;99.90;;;;;;5114076;28;20043;-64
2022/01/22 07:43:35;;;;;;;5.75;2.00;;;6.00;99.90;;;;;;5095876;28;20050;-66
2022/01/22 07:46:01;;;;;;;9.18;1.90;;;6.00;99.90;;;;;;5078534;28;20039;-65
2022/01/22 07:48:27;;;;;;;9.55;2.30;;;6.00;99.90;;;;;;5095180;28;20035;-65
2022/01/22 07:50:52;;;;;;;7.85;2.40;;;6.00;99.90;;;;;;5113963;28;20032;-66
2022/01/22 07:53:18;;;;;;;6.65;2.45;;;6.00;99.90;;;;;;5114116;28;20142;-66
2022/01/22 07:55:44;;;;;;;6.75;2.13;;;6.00;99.90;;;;;;5113508;28;20044;-65
2022/01/22 07:58:11;;;;;;;4.97;1.80;;;6.00;99.90;;;;;;5128655;28;20360;-66
2022/01/22 08:00:37;;;;;;;6.00;2.25;;;6.00;99.90;;;;;;5133981;28;20472;-64
2022/01/22 08:03:06;;;;;;;6.20;1.77;;;6.00;99.90;;;;;;5135936;27;20626;-64
2022/01/22 08:05:31;;;;;;;5.43;1.83;;;6.10;99.90;;;;;;5138352;27;20046;-64
2022/01/22 08:07:57;;;;;;;8.32;1.88;;;6.00;99.90;;;;;;5124139;27;20372;-65
2022/01/22 08:10:23;;;;;;;5.82;2.22;;;6.10;99.90;;;;;;5099462;28;20039;-64
2022/01/22 08:12:50;;;;;;;6.97;2.53;;;6.00;99.90;;;;;;5117576;28;20046;-65
2022/01/22 08:15:17;;;;;;;8.40;2.20;;;6.10;99.90;;;;;;5117469;28;20039;-64
2022/01/22 08:17:52;;;;;;;11.02;2.63;;;6.10;99.90;;;;;;5109890;27;20480;-65
2022/01/22 08:20:20;;;;;;;10.75;2.55;;;6.10;99.90;;;;;;5118363;27;20035;-65
2022/01/22 08:22:47;;;;;;;13.25;2.67;;;6.10;99.90;;;;;;5137440;27;20047;-64
2022/01/22 08:25:13;;;;;;;12.38;2.78;;;6.10;99.90;;;;;;5119684;27;20468;-64
2022/01/22 08:30:25;;;;;;;14.63;2.78;;;6.10;99.90;;;;;;5095234;27;20129;-62
2022/01/22 08:35:54;;;;;;;14.65;2.88;;;6.10;99.90;;;;;;5137457;27;20392;-64
2022/01/22 08:38:22;;;;;;;14.27;2.78;;;6.10;99.90;;;;;;5137151;27;20047;-64
2022/01/22 08:40:48;;;;;;;11.07;2.40;;;6.10;99.90;;;;;;5137133;27;20035;-64
2022/01/22 08:43:14;;;;;;;9.60;2.58;;;6.10;99.90;;;;;;5137416;27;20746;-65
2022/01/22 08:45:40;;;;;;;11.93;3.38;;;6.10;99.90;;;;;;5137386;27;20039;-65
2022/01/22 08:48:05;;;;;;;13.90;3.35;;;6.10;99.90;;;;;;5137241;27;20035;-64
2022/01/22 08:50:34;;;;;;;16.05;4.43;;;6.20;99.90;;;;;;5101974;27;20047;-63
2022/01/22 08:52:59;;;;;;;11.30;2.80;;;6.20;99.90;;;;;;5137345;27;20054;-64
2022/01/22 08:55:25;;;;;;;10.13;3.03;;;6.20;99.90;;;;;;5137414;27;20043;-64
2022/01/22 08:57:51;;;;;;;9.40;3.25;;;6.20;99.90;;;;;;5137153;27;20027;-64
2022/01/22 09:00:21;;;;;;;11.90;3.15;;;6.20;99.90;;;;;;5118526;27;20114;-64
2022/01/22 09:02:48;;;;;;;8.10;2.42;;;6.30;99.90;;;;;;5136953;27;20130;-65
2022/01/22 09:05:17;;;;;;;11.57;2.70;;;6.30;99.90;;;;;;5118028;27;20035;-64
2022/01/22 09:07:44;;;;;;;15.40;3.60;;;6.30;99.90;;;;;;5117777;27;20428;-64
2022/01/22 09:10:11;;;;;;;11.18;3.03;;;6.30;99.90;;;;;;5097373;28;20403;-65
2022/01/22 09:12:36;;;;;;;9.88;2.40;;;6.30;99.90;;;;;;5115289;27;20346;-64
2022/01/22 09:15:04;;;;;;;10.50;2.55;;;6.40;99.90;;;;;;5115426;27;20088;-65
2022/01/22 09:17:30;;;;;;;14.95;3.00;;;6.30;99.90;;;;;;5106456;27;20401;-66
2022/01/22 09:19:58;;;;;;;10.63;2.90;;;6.30;99.90;;;;;;5095575;28;20062;-64
2022/01/22 09:22:25;;;;;;;12.27;2.90;;;6.30;99.90;;;;;;5099231;28;20161;-64
2022/01/22 09:24:51;;;;;;;13.05;2.85;;;6.40;99.90;;;;;;5098034;28;20035;-64
2022/01/22 09:27:18;;;;;;;11.20;3.15;;;6.30;99.90;;;;;;5094555;28;20491;-65
2022/01/22 09:29:45;;;;;;;13.10;3.25;;;6.30;99.90;;;;;;5106215;28;20028;-62
2022/01/22 09:32:12;;;;;;;11.65;2.60;;;6.30;99.90;;;;;;5113017;28;20461;-65
2022/01/22 09:34:40;;;;;;;12.20;3.17;;;6.30;99.90;;;;;;5115089;28;20403;-65
2022/01/22 09:37:05;;;;;;;11.32;2.90;;;6.30;99.90;;;;;;5112456;28;20047;-63
2022/01/22 09:39:32;;;;;;;16.02;3.45;;;6.40;99.90;;;;;;5114597;28;20356;-64
2022/01/22 09:42:01;;;;;;;8.85;3.10;;;6.40;99.90;;;;;;5115275;28;20039;-64
2022/01/22 09:44:26;;;;;;;12.55;3.35;;;6.40;99.90;;;;;;5112361;28;20174;-64
2022/01/22 09:46:53;;;;;;;17.30;4.57;;;6.40;99.90;;;;;;5112605;28;20126;-67
2022/01/22 09:49:18;;;;;;;18.45;4.75;;;6.40;99.90;;;;;;5114893;28;20046;-64
2022/01/22 09:51:47;;;;;;;18.33;5.55;;;6.40;99.90;;;;;;5115180;28;20039;-64
2022/01/22 09:54:15;;;;;;;16.38;5.60;;;6.40;99.90;;;;;;5115274;28;20039;-64
2022/01/22 09:56:44;;;;;;;18.02;6.63;;;6.50;99.90;;;;;;5114585;28;20105;-65
2022/01/22 09:59:12;;;;;;;24.48;7.93;;;6.50;99.90;;;;;;5114915;28;20103;-64
2022/01/22 10:01:38;;;;;;;23.95;7.53;;;6.50;99.90;;;;;;5115530;28;20045;-67
2022/01/22 10:04:07;;;;;;;22.02;8.40;;;6.50;99.90;;;;;;5097135;28;20547;-62
2022/01/22 10:06:45;;;;;;;26.90;9.95;;;6.50;99.90;;;;;;5114535;28;20130;-63
2022/01/22 10:09:15;;;;;;;29.05;10.07;;;6.60;99.90;;;;;;5107951;28;20044;-63
2022/01/22 10:11:41;;;;;;;26.83;8.25;;;6.60;99.90;;;;;;5115190;28;20047;-63
2022/01/22 10:14:08;;;;;;;22.40;9.13;;;6.60;99.90;;;;;;5114881;28;20039;-63
2022/01/22 10:16:40;;;;;;;23.55;8.25;;;6.70;99.90;;;;;;5115632;27;20031;-63
2022/01/22 10:19:13;;;;;;;21.75;8.57;;;6.70;99.90;;;;;;5114169;28;20040;-63
2022/01/22 10:21:48;;;;;;;17.98;8.70;;;6.70;99.90;;;;;;5117140;27;20040;-63
2022/01/22 10:24:46;;;;;;;24.27;10.50;;;6.70;99.90;;;;;;5100687;28;20035;-64
2022/01/22 10:30:20;;;;;;;22.35;9.68;;;6.70;99.90;;;;;;5096355;28;20063;-63
2022/01/22 10:33:37;;;;;;;20.42;8.85;;;6.80;99.90;;;;;;5082491;27;20129;-63
2022/01/22 10:35:38;;;;;;;22.27;8.05;;;6.80;99.90;;;;;;5117024;27;20103;-63
2022/01/22 10:38:05;;;;;;;19.83;6.55;;;6.80;99.90;;;;;;5116153;27;20754;-64
2022/01/22 10:40:37;;;;;;;23.08;6.38;;;6.90;99.90;;;;;;5134895;27;20095;-63
2022/01/22 10:46:13;;;;;;;17.38;4.75;;;6.90;99.90;;;;;;5135090;27;20043;-63
2022/01/22 10:48:43;;;;;;;18.38;4.68;;;6.90;99.90;;;;;;5133797;27;20043;-63
2022/01/22 10:51:14;;;;;;;16.25;3.72;;;7.00;99.90;;;;;;5134662;27;20110;-64
2022/01/22 10:53:46;;;;;;;13.80;3.60;;;7.00;99.90;;;;;;5117145;27;20075;-64
2022/01/22 10:56:15;;;;;;;12.60;4.28;;;7.00;99.90;;;;;;5116912;27;20348;-66
2022/01/22 10:58:48;;;;;;;18.05;5.38;;;6.90;99.90;;;;;;5116001;27;20048;-64
2022/01/22 11:01:13;;;;;;;19.58;5.30;;;7.00;99.90;;;;;;5095502;27;21384;-65
2022/01/22 11:03:40;;;;;;;17.83;6.20;;;7.00;99.90;;;;;;5119930;27;20040;-64
2022/01/22 11:06:22;;;;;;;21.08;7.72;;;7.00;99.90;;;;;;5116056;27;20066;-64
2022/01/22 11:08:48;;;;;;;33.80;11.20;;;7.00;99.90;;;;;;5133764;27;20043;-63
2022/01/22 11:11:14;;;;;;;44.00;16.00;;;7.00;99.90;;;;;;5133854;27;20077;-63
2022/01/22 11:13:39;;;;;;;38.33;15.20;;;7.00;99.90;;;;;;5134267;27;20038;-63
2022/01/22 11:16:05;;;;;;;35.35;14.63;;;7.00;99.90;;;;;;5134120;27;20066;-62
2022/01/22 11:18:32;;;;;;;24.40;9.27;;;7.00;99.90;;;;;;5115318;27;20047;-63
2022/01/22 11:21:00;;;;;;;37.63;19.63;;;7.00;99.90;;;;;;5134396;28;20043;-63
2022/01/22 11:23:27;;;;;;;36.97;19.92;;;7.00;99.90;;;;;;5134649;28;20054;-63
2022/01/22 11:25:54;;;;;;;22.90;10.07;;;7.00;99.90;;;;;;5123192;28;20059;-62
2022/01/22 11:28:21;;;;;;;30.75;15.48;;;7.10;99.90;;;;;;5132441;28;20039;-63
2022/01/22 11:30:48;;;;;;;47.50;22.63;;;7.10;99.90;;;;;;5096848;28;20114;-64
2022/01/22 11:33:17;;;;;;;77.13;39.42;;;7.10;99.90;;;;;;5120484;28;20179;-65
2022/01/22 11:35:51;;;;;;;44.30;25.42;;;7.10;99.90;;;;;;5112788;28;20046;-62
2022/01/22 11:38:28;;;;;;;48.08;26.45;;;7.10;99.90;;;;;;5130945;27;20057;-63
2022/01/22 11:41:04;;;;;;;40.38;26.05;;;7.10;99.90;;;;;;5137964;27;20039;-64
2022/01/22 11:43:59;;;;;;;51.15;30.27;;;7.10;99.90;;;;;;5126036;27;20465;-63
2022/01/22 11:46:29;;;;;;;30.60;17.17;;;7.10;99.90;;;;;;5116551;28;20058;-64
2022/01/22 11:49:30;;;;;;;23.55;10.30;;;7.10;99.90;;;;;;5131999;27;20141;-65
2022/01/22 11:52:11;;;;;;;23.42;9.25;;;7.10;99.90;;;;;;5056889;28;20440;-65
2022/01/22 11:54:50;;;;;;;23.83;8.20;;;7.10;99.90;;;;;;5095646;28;20373;-64
2022/01/22 11:57:16;;;;;;;22.02;7.68;;;7.10;99.90;;;;;;5126165;27;20059;-64
2022/01/22 11:59:46;;;;;;;17.73;6.15;;;7.10;99.90;;;;;;5136983;27;20023;-63
2022/01/22 12:02:16;;;;;;;10.65;3.95;;;7.10;99.90;;;;;;5136279;27;20031;-64
2022/01/22 12:04:42;;;;;;;16.52;3.65;;;7.20;99.90;;;;;;5136768;27;20382;-63
2022/01/22 12:07:07;;;;;;;10.20;2.70;;;7.10;99.90;;;;;;5136110;27;20035;-63
2022/01/22 12:10:15;;;;;;;8.23;2.85;;;7.20;99.90;;;;;;5101437;27;20043;-64
2022/01/22 12:15:34;;;;;;;7.10;2.10;;;7.20;99.90;;;;;;5137732;27;20066;-63
2022/01/22 12:18:12;;;;;;;11.35;2.58;;;7.20;99.90;;;;;;5132690;27;20043;-63
2022/01/22 12:23:12;;;;;;;9.43;3.00;;;7.20;99.90;;;;;;5137915;27;20053;-63
2022/01/22 12:25:38;;;;;;;12.45;3.22;;;7.30;99.90;;;;;;5137888;27;20051;-64
2022/01/22 12:28:06;;;;;;;11.20;3.40;;;7.30;99.90;;;;;;5136231;27;20035;-63
2022/01/22 12:30:38;;;;;;;8.98;3.33;;;7.30;99.90;;;;;;5119542;27;20111;-64
2022/01/22 12:33:07;;;;;;;15.98;4.10;;;7.30;99.90;;;;;;5137775;27;20167;-64
2022/01/22 12:35:40;;;;;;;9.98;3.50;;;7.30;99.90;;;;;;5128214;27;20050;-63
2022/01/22 12:41:25;;;;;;;9.18;3.20;;;7.20;99.90;;;;;;5116871;28;20039;-63
2022/01/22 12:44:00;;;;;;;8.73;2.70;;;7.30;99.90;;;;;;5135457;27;20091;-64
2022/01/22 12:46:28;;;;;;;11.07;3.30;;;7.30;99.90;;;;;;5137300;27;20043;-64
2022/01/22 12:48:56;;;;;;;10.70;3.22;;;7.30;99.90;;;;;;5134702;27;20031;-64
2022/01/22 12:51:26;;;;;;;9.73;3.05;;;7.30;99.90;;;;;;5118996;27;20050;-64
2022/01/22 12:53:52;;;;;;;8.50;2.88;;;7.30;99.90;;;;;;5119254;27;20046;-64
2022/01/22 12:59:03;;;;;;;6.38;2.90;;;7.30;99.90;;;;;;5135737;27;20118;-62
2022/01/22 13:01:30;;;;;;;11.73;3.10;;;7.30;99.90;;;;;;5136774;27;20035;-63
2022/01/22 13:03:57;;;;;;;10.38;3.40;;;7.30;99.90;;;;;;5136778;27;20455;-63
2022/01/22 13:06:26;;;;;;;22.75;7.47;;;7.50;99.90;;;;;;5136855;27;20510;-63
2022/01/22 13:08:56;;;;;;;15.32;6.00;;;7.80;99.90;;;;;;5135868;27;20035;-62
2022/01/22 13:11:28;;;;;;;21.27;9.40;;;8.00;99.90;;;;;;5136838;27;20050;-64
2022/01/22 13:13:54;;;;;;;12.35;4.00;;;8.30;99.90;;;;;;5137206;27;20122;-63
2022/01/22 13:16:21;;;;;;;9.95;3.65;;;8.50;99.90;;;;;;5136505;27;20054;-63
2022/01/22 13:18:56;;;;;;;13.65;4.45;;;8.40;99.90;;;;;;5135638;27;20039;-63
2022/01/22 13:21:23;;;;;;;12.55;4.32;;;8.50;99.90;;;;;;5137004;27;20035;-62
2022/01/22 13:24:05;;;;;;;12.30;3.40;;;8.60;99.90;;;;;;5136851;27;20104;-63
2022/01/22 13:26:42;;;;;;;10.07;2.95;;;8.50;99.90;;;;;;5136556;27;20329;-63
2022/01/22 13:29:43;;;;;;;7.85;2.30;;;8.40;99.90;;;;;;5100586;27;20122;-63
2022/01/22 13:32:20;;;;;;;9.23;2.35;;;8.60;99.90;;;;;;5125657;27;20468;-64
2022/01/22 13:48:32;;;;;;;10.50;2.45;;;8.10;99.90;;;;;;5135490;27;20039;-64
2022/01/22 13:50:58;;;;;;;7.22;2.47;;;7.80;99.90;;;;;;5100504;27;20448;-63
2022/01/22 13:53:27;;;;;;;11.95;4.03;;;7.70;99.90;;;;;;5136246;27;20039;-63
2022/01/22 13:56:12;;;;;;;13.18;4.68;;;7.60;99.90;;;;;;5136230;27;20069;-63
2022/01/22 13:58:38;;;;;;;12.20;4.50;;;7.50;99.90;;;;;;5134893;27;20054;-63
2022/01/22 14:01:39;;;;;;;14.82;5.35;;;7.40;99.90;;;;;;5135628;27;20142;-64
2022/01/22 14:04:10;;;;;;;13.00;5.03;;;7.30;99.90;;;;;;5131379;27;20112;-64
2022/01/22 14:06:36;;;;;;;17.15;5.20;;;7.20;99.90;;;;;;5118134;27;20464;-63
2022/01/22 14:09:19;;;;;;;16.70;5.75;;;7.20;99.90;;;;;;5115796;27;20048;-63
2022/01/22 14:12:08;;;;;;;15.70;5.88;;;7.10;99.90;;;;;;5114903;28;20070;-65
2022/01/22 14:15:01;;;;;;;17.88;5.40;;;7.10;99.90;;;;;;5104157;27;20043;-64
2022/01/22 14:17:36;;;;;;;17.73;5.10;;;7.10;99.90;;;;;;5133937;27;20051;-64
2022/01/22 14:20:10;;;;;;;22.67;5.80;;;7.10;99.90;;;;;;5113374;27;20035;-63
2022/01/22 14:23:01;;;;;;;15.70;5.22;;;7.10;99.90;;;;;;5133867;27;20471;-63
2022/01/22 14:25:27;;;;;;;17.50;5.78;;;7.10;99.90;;;;;;5134892;27;20050;-63
2022/01/22 14:28:11;;;;;;;14.90;5.60;;;7.10;99.90;;;;;;5099411;27;20042;-62
2022/01/22 14:30:44;;;;;;;17.17;5.05;;;7.20;99.90;;;;;;5134591;27;20371;-63
2022/01/22 14:33:20;;;;;;;14.07;4.50;;;7.10;99.90;;;;;;5114836;27;20035;-63
2022/01/22 14:35:59;;;;;;;12.07;2.75;;;7.10;99.90;;;;;;5134412;27;20301;-62
2022/01/22 14:38:59;;;;;;;11.48;2.20;;;7.20;99.90;;;;;;5134212;27;20058;-63
2022/01/22 14:44:25;;;;;;;8.20;2.00;;;7.20;99.90;;;;;;5134814;27;20043;-62
2022/01/22 14:47:13;;;;;;;8.95;1.85;;;7.20;99.90;;;;;;5133769;27;20035;-62
2022/01/22 14:49:53;;;;;;;7.88;1.98;;;7.20;99.90;;;;;;5131978;27;20046;-63
2022/01/22 14:52:21;;;;;;;15.30;3.05;;;7.20;99.90;;;;;;5134823;27;20054;-64
2022/01/22 14:54:49;;;;;;;10.23;2.95;;;7.20;99.90;;;;;;5116545;27;20039;-63
2022/01/22 14:57:23;;;;;;;9.48;2.45;;;7.20;99.90;;;;;;5133866;27;20035;-63
2022/01/22 14:59:49;;;;;;;7.95;1.48;;;7.20;99.90;;;;;;5115937;27;20046;-65
2022/01/22 15:02:15;;;;;;;6.07;1.52;;;7.20;99.90;;;;;;5134687;27;20049;-65
2022/01/22 15:04:42;;;;;;;7.30;1.63;;;7.20;99.90;;;;;;5100041;27;20035;-63
2022/01/22 15:07:10;;;;;;;7.90;1.77;;;7.20;99.90;;;;;;5115607;27;20398;-63